createdAt,value
2023-02-11T00:03:43.928Z,32.57
2023-02-11T00:08:46.764Z,40.97
2023-02-11T00:13:49.529Z,34.20
2023-02-11T00:18:54.199Z,33.73
2023-02-11T00:23:59.984Z,33.40
2023-02-11T00:29:03.945Z,39.73
2023-02-11T00:34:07.168Z,33.90
2023-02-11T00:39:09.848Z,33.37
2023-02-11T00:44:12.108Z,36.47
2023-02-11T00:49:15.795Z,39.67
2023-02-11T00:54:18.101Z,37.50
2023-02-11T00:59:20.728Z,36.77
2023-02-11T01:04:23.201Z,37.70
2023-02-11T01:09:27.603Z,42.20
2023-02-11T01:14:29.956Z,46.17
2023-02-11T01:19:32.337Z,45.10
2023-02-11T01:24:34.737Z,45.73
2023-02-11T01:29:39.313Z,40.87
2023-02-11T01:34:41.678Z,38.93
2023-02-11T01:39:44.102Z,41.73
2023-02-11T01:44:52.665Z,43.57
2023-02-11T01:49:59.634Z,42.83
2023-02-11T01:55:28.684Z,39.73
2023-02-11T02:00:37.747Z,40.07
2023-02-11T02:05:56.063Z,37.17
2023-02-11T02:11:01.071Z,38.80
2023-02-11T02:16:09.814Z,41.90
2023-02-11T02:21:34.546Z,41.53
2023-02-11T02:26:58.899Z,44.30
2023-02-11T02:32:38.373Z,44.70
2023-02-11T02:37:42.075Z,40.90
2023-02-11T02:42:45.181Z,30.30
2023-02-11T02:47:47.494Z,40.43
2023-02-11T02:53:12.707Z,33.53
2023-02-11T02:58:50.157Z,31.40
2023-02-11T03:04:10.033Z,30.80
2023-02-11T03:09:26.548Z,34.80
2023-02-11T03:14:30.619Z,31.77
2023-02-11T03:19:39.363Z,32.00
2023-02-11T03:24:42.709Z,30.90
2023-02-11T03:30:01.095Z,30.70
2023-02-11T03:35:24.659Z,32.77
2023-02-11T03:40:32.942Z,27.00
2023-02-11T03:45:38.084Z,28.90
2023-02-11T03:50:42.063Z,28.03
2023-02-11T03:55:48.380Z,30.67
2023-02-11T04:00:50.902Z,31.30
2023-02-11T04:05:53.215Z,37.47
2023-02-11T04:10:55.467Z,38.00
2023-02-11T04:15:57.787Z,35.20
2023-02-11T04:20:59.965Z,33.67
2023-02-11T04:26:02.316Z,35.30
2023-02-11T04:31:04.947Z,40.80
2023-02-11T04:36:07.855Z,29.60
2023-02-11T04:41:10.085Z,33.27
2023-02-11T04:46:12.446Z,32.03
2023-02-11T04:51:15.367Z,42.20
2023-02-11T04:56:17.689Z,47.50
2023-02-11T05:01:20.035Z,37.13
2023-02-11T05:06:22.357Z,46.07
2023-02-11T05:11:26.275Z,55.57
2023-02-11T05:16:28.680Z,38.70
2023-02-11T05:21:31.129Z,51.83
2023-02-11T05:26:33.586Z,39.67
2023-02-11T05:31:36.003Z,34.50
2023-02-11T05:36:38.379Z,32.37
2023-02-11T05:41:40.771Z,37.23
2023-02-11T05:46:43.170Z,47.83
2023-02-11T05:51:45.530Z,47.17
2023-02-11T05:56:47.761Z,43.07
2023-02-11T06:01:50.037Z,35.33
2023-02-11T06:06:52.223Z,37.50
2023-02-11T06:11:54.648Z,40.47
2023-02-11T06:16:57.007Z,43.80
2023-02-11T06:22:00.456Z,42.33
2023-02-11T06:27:04.903Z,43.93
2023-02-11T06:32:10.107Z,39.27
2023-02-11T06:37:18.431Z,43.00
2023-02-11T06:42:20.763Z,43.10
2023-02-11T06:47:23.074Z,39.47
2023-02-11T06:52:25.346Z,35.30
2023-02-11T06:57:27.586Z,38.83
2023-02-11T07:02:29.864Z,33.60
2023-02-11T07:07:34.364Z,36.50
2023-02-11T07:12:36.742Z,42.27
2023-02-11T07:17:39.054Z,33.77
2023-02-11T07:22:41.297Z,46.37
2023-02-11T07:27:43.631Z,47.33
2023-02-11T07:32:45.881Z,44.33
2023-02-11T07:37:48.158Z,47.03
2023-02-11T07:42:50.434Z,42.90
2023-02-11T07:47:52.690Z,43.90
2023-02-11T07:52:54.947Z,50.83
2023-02-11T07:57:57.737Z,43.50
2023-02-11T08:03:00.225Z,42.90
2023-02-11T08:08:02.388Z,49.70
2023-02-11T08:13:04.639Z,52.90
2023-02-11T08:18:07.532Z,46.07
2023-02-11T08:23:09.800Z,62.43
2023-02-11T08:28:12.134Z,47.83
2023-02-11T08:33:14.381Z,58.00
2023-02-11T08:38:16.681Z,55.47
2023-02-11T08:43:18.807Z,50.90
2023-02-11T08:48:20.999Z,48.47
2023-02-11T08:53:23.593Z,55.00
2023-02-11T08:58:25.918Z,57.40
2023-02-11T09:03:28.350Z,51.20
2023-02-11T09:08:30.602Z,52.77
2023-02-11T09:13:34.058Z,43.83
2023-02-11T09:18:36.333Z,44.00
2023-02-11T09:23:38.671Z,49.73
2023-02-11T09:28:40.991Z,44.57
2023-02-11T09:33:49.178Z,50.97
2023-02-11T09:38:52.843Z,42.20
2023-02-11T09:44:05.400Z,46.00
2023-02-11T09:49:16.456Z,49.90
2023-02-11T09:54:37.084Z,51.50
2023-02-11T09:59:40.907Z,49.23
2023-02-11T10:05:28.378Z,43.37
2023-02-11T10:10:54.605Z,45.90
2023-02-11T10:16:27.820Z,49.07
2023-02-11T10:21:52.935Z,50.70
2023-02-11T10:26:55.366Z,41.67
2023-02-11T10:31:59.580Z,46.60
2023-02-11T10:37:01.987Z,43.17
2023-02-11T10:42:11.252Z,46.03
2023-02-11T10:47:23.039Z,42.67
2023-02-11T10:52:28.353Z,41.37
2023-02-11T10:57:40.079Z,41.33
2023-02-11T11:02:52.566Z,42.87
2023-02-11T11:08:02.769Z,46.30
2023-02-11T11:13:05.231Z,41.20
2023-02-11T11:18:22.475Z,33.77
2023-02-11T11:23:26.246Z,35.67
2023-02-11T11:28:31.983Z,40.23
2023-02-11T11:33:37.199Z,41.17
2023-02-11T11:39:08.787Z,40.83
2023-02-11T11:44:33.964Z,33.73
2023-02-11T11:49:43.438Z,34.00
2023-02-11T11:54:55.907Z,36.30
2023-02-11T11:59:59.327Z,33.30
2023-02-11T12:05:07.814Z,36.20
2023-02-11T12:10:38.200Z,35.47
2023-02-11T12:16:27.340Z,30.10
2023-02-11T12:22:03.706Z,37.40
2023-02-11T12:27:44.142Z,30.70
2023-02-11T12:33:17.235Z,35.80
2023-02-11T12:39:05.456Z,27.87
2023-02-11T12:44:35.617Z,37.27
2023-02-11T12:56:03.529Z,32.77
2023-02-11T13:01:16.064Z,34.97
2023-02-11T13:06:35.402Z,35.07
2023-02-11T13:11:52.533Z,31.33
2023-02-11T13:16:58.542Z,32.73
2023-02-11T13:22:20.614Z,30.07
2023-02-11T13:27:50.549Z,29.90
2023-02-11T13:32:55.834Z,33.53
2023-02-11T13:38:01.578Z,34.10
2023-02-11T13:43:07.808Z,37.53
2023-02-11T13:48:24.604Z,30.87
2023-02-11T13:53:28.233Z,31.03
2023-02-11T13:58:30.328Z,26.33
2023-02-11T14:03:57.507Z,32.00
2023-02-11T14:09:15.602Z,29.97
2023-02-11T14:14:23.830Z,31.43
2023-02-11T14:19:46.120Z,30.03
2023-02-11T14:25:02.485Z,27.97
2023-02-11T14:30:48.804Z,28.20
2023-02-11T14:36:22.946Z,28.90
2023-02-11T14:41:31.441Z,29.87
2023-02-11T14:46:34.616Z,32.30
2023-02-11T14:51:40.919Z,27.03
2023-02-11T14:56:44.791Z,26.53
2023-02-11T15:01:51.823Z,36.10
2023-02-11T15:06:55.345Z,53.47
2023-02-11T15:11:58.736Z,40.90
2023-02-11T15:17:07.910Z,28.80
2023-02-11T15:22:30.382Z,30.87
2023-02-11T15:27:48.276Z,24.00
2023-02-11T15:33:19.728Z,20.93
2023-02-11T15:38:21.908Z,24.70
2023-02-11T15:43:24.168Z,19.50
2023-02-11T15:48:53.595Z,37.10
2023-02-11T15:54:03.377Z,24.57
2023-02-11T15:59:20.420Z,46.30
2023-02-11T16:04:26.768Z,27.43
2023-02-11T16:09:36.086Z,27.80
2023-02-11T16:14:39.459Z,27.47
2023-02-11T16:19:46.777Z,30.67
2023-02-11T16:24:52.456Z,25.47
2023-02-11T16:29:55.036Z,27.83
2023-02-11T16:35:00.972Z,31.00
2023-02-11T16:40:03.166Z,26.37
2023-02-11T16:45:06.234Z,40.93
2023-02-11T16:50:12.362Z,32.20
2023-02-11T16:55:15.275Z,30.00
2023-02-11T17:00:18.290Z,27.37
2023-02-11T17:05:23.331Z,30.13
2023-02-11T17:10:25.936Z,33.67
2023-02-11T17:15:28.135Z,25.80
2023-02-11T17:20:30.373Z,29.07
2023-02-11T17:25:32.794Z,28.80
2023-02-11T17:30:35.703Z,36.70
2023-02-11T17:35:40.672Z,39.03
2023-02-11T17:40:42.991Z,38.33
2023-02-11T17:45:45.123Z,42.23
2023-02-11T17:50:47.363Z,34.23
2023-02-11T17:55:49.845Z,31.50
2023-02-11T18:00:52.368Z,33.40
2023-02-11T18:05:54.553Z,29.63
2023-02-11T18:10:56.875Z,35.40
2023-02-11T18:16:04.182Z,34.90
2023-02-11T18:21:09.634Z,31.00
2023-02-11T18:26:13.961Z,32.87
2023-02-11T18:31:17.215Z,28.60
2023-02-11T18:36:21.217Z,30.50
2023-02-11T18:41:23.519Z,26.13
2023-02-11T18:46:26.093Z,32.60
2023-02-11T18:51:31.676Z,32.07
2023-02-11T18:56:34.055Z,32.97
2023-02-11T19:01:36.591Z,23.70
2023-02-11T19:06:39.361Z,30.20
2023-02-11T19:11:47.374Z,30.00
2023-02-11T19:16:52.987Z,32.60
2023-02-11T19:21:55.898Z,29.23
2023-02-11T19:27:02.609Z,26.10
2023-02-11T19:32:06.434Z,33.70
2023-02-11T19:37:12.738Z,26.53
2023-02-11T19:42:15.209Z,30.43
2023-02-11T19:47:17.906Z,25.90
2023-02-11T19:52:20.170Z,27.30
2023-02-11T19:57:22.318Z,36.03
2023-02-11T20:02:24.996Z,28.73
2023-02-11T20:07:27.322Z,29.90
2023-02-11T20:12:29.653Z,54.57
2023-02-11T20:17:32.139Z,47.83
2023-02-11T20:22:34.572Z,41.27
2023-02-11T20:27:36.871Z,40.60
2023-02-11T20:32:39.039Z,34.13
2023-02-11T20:37:44.033Z,30.90
2023-02-11T20:42:46.381Z,33.30
2023-02-11T20:47:48.833Z,31.07
2023-02-11T20:52:51.138Z,37.07
2023-02-11T20:57:53.510Z,32.73
2023-02-11T21:02:55.855Z,32.30
2023-02-11T21:07:58.098Z,31.47
2023-02-11T21:13:00.517Z,31.13
2023-02-11T21:18:02.756Z,32.43
2023-02-11T21:23:04.893Z,33.33
2023-02-11T21:28:07.287Z,31.90
2023-02-11T21:33:09.674Z,35.83
2023-02-11T21:38:12.396Z,33.70
2023-02-11T21:43:14.570Z,40.30
2023-02-11T21:48:18.079Z,31.13
2023-02-11T21:53:20.362Z,34.87
2023-02-11T21:58:22.821Z,32.73
2023-02-11T22:03:25.257Z,33.30
2023-02-11T22:08:27.433Z,31.30
2023-02-11T22:13:29.628Z,28.33
2023-02-11T22:18:32.112Z,31.43
2023-02-11T22:23:35.305Z,32.87
2023-02-11T22:28:40.645Z,39.00
2023-02-11T22:33:44.153Z,30.83
2023-02-11T22:38:46.993Z,29.60
2023-02-11T22:43:49.801Z,27.50
2023-02-11T22:48:53.062Z,28.63
2023-02-11T22:54:01.457Z,28.47
2023-02-11T22:59:08.017Z,26.73
2023-02-11T23:04:14.791Z,27.37
2023-02-11T23:09:17.171Z,24.50
2023-02-11T23:14:19.420Z,24.33
2023-02-11T23:19:21.642Z,38.73
2023-02-11T23:24:23.811Z,22.90
2023-02-11T23:29:26.088Z,26.93
2023-02-11T23:34:28.433Z,21.57
2023-02-11T23:39:30.641Z,23.60
2023-02-11T23:44:32.989Z,18.63
2023-02-11T23:49:35.423Z,23.67
2023-02-11T23:54:37.760Z,20.83
2023-02-11T23:59:41.373Z,20.33
